Time;durP1;ratioP1;P1;durP2;ratioP2;P2;SDS_P1;SDS_P2;PMS_P1;PMS_P2;Temp;Humidity;BMP_temperature;BMP_pressure;BME280_temperature;BME280_humidity;BME280_pressure;Samples;Min_cycle;Max_cycle;Signal;HPM_P1;HPM_P2
2022/08/11 00:01:27;;;;;;;1.92;1.15;;;;;;;;;;5067865;28;20654;-44
2022/08/11 00:03:54;;;;;;;2.17;1.30;;;;;;;;;;5071944;28;20016;-45
2022/08/11 00:06:34;;;;;;;2.22;1.25;;;;;;;;;;5070226;28;20024;-44
2022/08/11 00:08:59;;;;;;;;;;;;;;;;;;5071947;28;20012;-46
2022/08/11 00:11:31;;;;;;;3.85;1.02;;;;;;;;;;5071238;28;20011;-44
2022/08/11 00:13:57;;;;;;;2.03;1.40;;;;;;;;;;5071353;28;20420;-45
2022/08/11 00:16:24;;;;;;;2.35;1.40;;;;;;;;;;5071129;28;20060;-44
2022/08/11 00:18:53;;;;;;;6.15;1.50;;;;;;;;;;5071793;28;20027;-44
2022/08/11 00:21:20;;;;;;;2.15;0.95;;;;;;;;;;5071118;28;20020;-46
2022/08/11 00:23:51;;;;;;;4.60;1.33;;;;;;;;;;5071466;28;20361;-44
2022/08/11 00:26:16;;;;;;;4.60;1.40;;;;;;;;;;5070176;28;20032;-44
2022/08/11 00:28:42;;;;;;;2.75;1.20;;;;;;;;;;5071105;28;20024;-44
2022/08/11 00:31:08;;;;;;;2.00;1.30;;;;;;;;;;5069722;28;20025;-45
2022/08/11 00:33:41;;;;;;;1.60;1.10;;;;;;;;;;5071363;28;20024;-44
2022/08/11 00:36:07;;;;;;;2.92;1.42;;;;;;;;;;5071186;28;20017;-44
2022/08/11 00:38:34;;;;;;;1.70;1.17;;;;;;;;;;5071419;28;20020;-44
2022/08/11 00:41:12;;;;;;;5.25;1.48;;;;;;;;;;5071041;28;20012;-44
2022/08/11 00:43:46;;;;;;;2.72;1.30;;;;;;;;;;5070066;28;20024;-45
2022/08/11 00:46:11;;;;;;;4.53;1.50;;;;;;;;;;5069929;28;20414;-46
2022/08/11 00:48:45;;;;;;;1.73;1.48;;;;;;;;;;5071020;28;20016;-45
2022/08/11 00:51:29;;;;;;;3.13;1.40;;;;;;;;;;5069728;28;20031;-46
2022/08/11 00:54:04;;;;;;;2.65;1.30;;;;;;;;;;5071577;28;20024;-44
2022/08/11 00:56:44;;;;;;;2.50;1.35;;;;;;;;;;5070079;28;20039;-44
2022/08/11 00:59:20;;;;;;;3.63;1.42;;;;;;;;;;5071141;28;20031;-45
2022/08/11 01:02:07;;;;;;;3.78;1.42;;;;;;;;;;5069770;28;20032;-45
2022/08/11 01:04:51;;;;;;;3.10;1.58;;;;;;;;;;5069857;28;20020;-47
2022/08/11 01:07:19;;;;;;;1.48;1.38;;;;;;;;;;5071134;28;20127;-44
2022/08/11 01:09:51;;;;;;;2.17;1.23;;;;;;;;;;5069646;28;20028;-47
2022/08/11 01:12:16;;;;;;;3.53;1.55;;;;;;;;;;5070968;28;20028;-44
2022/08/11 01:14:54;;;;;;;2.22;1.60;;;;;;;;;;5071106;28;20048;-44
2022/08/11 01:17:39;;;;;;;2.70;1.33;;;;;;;;;;5069729;28;20340;-44
2022/08/11 01:20:29;;;;;;;5.20;1.20;;;;;;;;;;5069308;28;20471;-44
2022/08/11 01:23:10;;;;;;;2.58;1.50;;;;;;;;;;5069663;28;20117;-44
2022/08/11 01:25:43;;;;;;;3.47;1.70;;;;;;;;;;5069778;28;20020;-44
2022/08/11 01:28:30;;;;;;;1.75;1.35;;;;;;;;;;5070357;28;20114;-46
2022/08/11 01:31:02;;;;;;;4.45;1.40;;;;;;;;;;5074434;28;20123;-45
2022/08/11 01:33:46;;;;;;;3.22;1.55;;;;;;;;;;5074667;28;20016;-44
2022/08/11 01:36:30;;;;;;;1.52;1.25;;;;;;;;;;5074749;28;20530;-44
2022/08/11 01:39:02;;;;;;;4.13;1.60;;;;;;;;;;5073204;28;20387;-44
2022/08/11 01:44:36;;;;;;;1.65;1.33;;;;;;;;;;5074227;28;20020;-45
2022/08/11 01:44:38;;;;;;;4.95;1.77;;;;;;;;;;5074149;28;20033;-46
2022/08/11 01:50:14;;;;;;;4.38;1.65;;;;;;;;;;5074286;28;20537;-46
2022/08/11 01:52:59;;;;;;;2.95;1.60;;;;;;;;;;5074034;28;20095;-44
2022/08/11 01:55:45;;;;;;;2.22;1.50;;;;;;;;;;5074768;28;20192;-44
2022/08/11 01:58:29;;;;;;;4.22;1.67;;;;;;;;;;5051804;28;20024;-45
2022/08/11 02:01:09;;;;;;;4.38;1.58;;;;;;;;;;5074186;28;20017;-44
2022/08/11 02:04:02;;;;;;;2.15;1.67;;;;;;;;;;5074440;28;20020;-44
2022/08/11 02:09:18;;;;;;;8.63;1.58;;;;;;;;;;5074351;28;20081;-44
2022/08/11 02:11:46;;;;;;;5.13;2.47;;;;;;;;;;5074113;28;20036;-44
2022/08/11 02:14:18;;;;;;;4.40;1.55;;;;;;;;;;5072182;28;20114;-44
2022/08/11 02:16:43;;;;;;;9.43;1.85;;;;;;;;;;5073886;28;20116;-44
2022/08/11 02:24:56;;;;;;;3.60;1.67;;;;;;;;;;5074147;28;20110;-44
2022/08/11 02:27:23;;;;;;;4.20;1.40;;;;;;;;;;5072413;28;20158;-45
2022/08/11 02:29:52;;;;;;;1.77;1.27;;;;;;;;;;5073567;28;20028;-44
2022/08/11 02:35:35;;;;;;;2.85;1.65;;;;;;;;;;5073684;28;20032;-45
2022/08/11 02:38:10;;;;;;;3.85;1.70;;;;;;;;;;5071685;28;20523;-44
2022/08/11 02:40:48;;;;;;;3.33;1.63;;;;;;;;;;5073279;28;20027;-45
2022/08/11 02:43:23;;;;;;;4.93;1.30;;;;;;;;;;5073292;28;20027;-44
2022/08/11 02:45:55;;;;;;;5.03;1.60;;;;;;;;;;5072768;28;20024;-46
2022/08/11 02:51:14;;;;;;;2.60;1.55;;;;;;;;;;5073025;28;20048;-44
2022/08/11 02:53:48;;;;;;;2.67;1.40;;;;;;;;;;5073099;28;20108;-44
2022/08/11 02:56:21;;;;;;;5.07;1.45;;;;;;;;;;5071759;28;20067;-46
2022/08/11 03:02:05;;;;;;;3.83;1.42;;;;;;;;;;5073041;28;20028;-45
2022/08/11 03:04:37;;;;;;;2.83;1.60;;;;;;;;;;5072669;28;20036;-44
2022/08/11 03:07:20;;;;;;;3.88;1.27;;;;;;;;;;5072805;28;20375;-45
2022/08/11 03:09:51;;;;;;;3.45;1.50;;;;;;;;;;5072240;28;20456;-46
2022/08/11 03:18:05;;;;;;;4.43;1.65;;;;;;;;;;5072499;28;20035;-45
2022/08/11 03:20:49;;;;;;;3.25;1.35;;;;;;;;;;5071347;28;20040;-44
2022/08/11 03:23:24;;;;;;;3.03;1.58;;;;;;;;;;5072672;28;20036;-44
2022/08/11 03:25:53;;;;;;;4.20;1.70;;;;;;;;;;5070623;28;20030;-45
2022/08/11 03:28:30;;;;;;;4.30;1.77;;;;;;;;;;5070806;28;20048;-44
2022/08/11 03:31:13;;;;;;;2.15;1.40;;;;;;;;;;5072111;28;20037;-45
2022/08/11 03:34:02;;;;;;;3.80;1.55;;;;;;;;;;5072562;28;20034;-44
2022/08/11 03:36:27;;;;;;;2.35;1.30;;;;;;;;;;5072326;28;20031;-45
2022/08/11 03:38:59;;;;;;;2.13;1.40;;;;;;;;;;5070556;28;20016;-44
2022/08/11 03:41:44;;;;;;;3.97;1.55;;;;;;;;;;5072003;28;20035;-44
2022/08/11 03:44:31;;;;;;;5.38;1.50;;;;;;;;;;5072001;28;20016;-45
2022/08/11 03:47:03;;;;;;;4.93;1.33;;;;;;;;;;5071897;28;20032;-44
2022/08/11 03:49:40;;;;;;;6.55;1.63;;;;;;;;;;5072196;28;20466;-44
2022/08/11 03:52:26;;;;;;;1.58;1.15;;;;;;;;;;5070513;28;20283;-45
2022/08/11 03:55:10;;;;;;;5.18;1.55;;;;;;;;;;5071820;28;20035;-44
2022/08/11 03:57:41;;;;;;;3.13;1.60;;;;;;;;;;5071736;28;20109;-44
2022/08/11 04:00:25;;;;;;;2.80;1.73;;;;;;;;;;5070695;28;20476;-44
2022/08/11 04:03:09;;;;;;;3.80;1.52;;;;;;;;;;5070293;28;20119;-45
2022/08/11 04:05:47;;;;;;;2.95;1.33;;;;;;;;;;5070717;28;20361;-44
2022/08/11 04:08:21;;;;;;;4.35;1.40;;;;;;;;;;5070261;28;20036;-44
2022/08/11 04:11:05;;;;;;;2.55;1.40;;;;;;;;;;5070638;28;20036;-44
2022/08/11 04:13:50;;;;;;;3.22;1.50;;;;;;;;;;5071868;28;20040;-44
2022/08/11 04:16:33;;;;;;;2.63;1.17;;;;;;;;;;5071502;28;20465;-44
2022/08/11 04:18:58;;;;;;;1.90;1.30;;;;;;;;;;5070492;28;20532;-44
2022/08/11 04:21:42;;;;;;;2.60;1.37;;;;;;;;;;5071776;28;20016;-44
2022/08/11 04:24:07;;;;;;;2.65;1.30;;;;;;;;;;5071742;28;20486;-46
2022/08/11 04:26:52;;;;;;;1.70;1.40;;;;;;;;;;5071440;28;20035;-44
2022/08/11 04:29:17;;;;;;;3.13;1.45;;;;;;;;;;5071693;28;20745;-44
2022/08/11 04:31:42;;;;;;;1.37;1.13;;;;;;;;;;5071618;28;20071;-44
2022/08/11 04:34:26;;;;;;;2.57;1.20;;;;;;;;;;5071345;28;20697;-45
2022/08/11 04:39:48;;;;;;;2.00;1.45;;;;;;;;;;5071491;28;20395;-44
2022/08/11 04:45:32;;;;;;;3.33;1.02;;;;;;;;;;5071538;28;20445;-44
2022/08/11 05:02:38;;;;;;;4.20;1.33;;;;;;;;;;5065955;28;20036;-44
2022/08/11 05:05:30;;;;;;;3.17;0.95;;;;;;;;;;5075242;28;20499;-44
2022/08/11 05:08:02;;;;;;;5.03;1.30;;;;;;;;;;5075314;28;20021;-44
2022/08/11 05:10:39;;;;;;;1.40;1.23;;;;;;;;;;5075081;28;20055;-44
2022/08/11 05:36:11;;;;;;;4.00;1.20;;;;;;;;;;5074218;28;20121;-44
2022/08/11 05:58:01;;;;;;;4.05;1.30;;;;;;;;;;5073786;28;20392;-44
2022/08/11 06:00:26;;;;;;;;;;;;;;;;;;5073852;28;20040;-44
2022/08/11 06:02:56;;;;;;;4.15;1.80;;;;;;;;;;5073893;28;19933;-44
2022/08/11 06:05:22;;;;;;;3.88;1.40;;;;;;;;;;5073539;28;20365;-44
2022/08/11 06:07:48;;;;;;;7.82;1.98;;;;;;;;;;5073705;28;20031;-44
2022/08/11 06:10:13;;;;;;;2.30;1.13;;;;;;;;;;5072291;28;20043;-44
2022/08/11 06:12:41;;;;;;;8.90;1.77;;;;;;;;;;5073628;28;20021;-46
2022/08/11 06:15:09;;;;;;;1.90;1.20;;;;;;;;;;5070413;28;20121;-46
2022/08/11 06:17:43;;;;;;;7.55;1.30;;;;;;;;;;5073735;28;20024;-44
2022/08/11 06:20:11;;;;;;;7.97;1.20;;;;;;;;;;5072703;28;20247;-45
2022/08/11 06:22:47;;;;;;;3.17;1.30;;;;;;;;;;5073519;28;20521;-44
2022/08/11 06:25:14;;;;;;;3.58;1.40;;;;;;;;;;5073787;28;20031;-45
2022/08/11 06:27:40;;;;;;;1.90;1.10;;;;;;;;;;5073848;28;20074;-44
2022/08/11 06:30:12;;;;;;;5.60;1.40;;;;;;;;;;5071719;28;20127;-44
2022/08/11 06:32:38;;;;;;;5.07;1.95;;;;;;;;;;5073774;28;20052;-44
2022/08/11 06:35:06;;;;;;;1.90;1.17;;;;;;;;;;5073150;28;20126;-44
2022/08/11 06:37:37;;;;;;;2.35;0.93;;;;;;;;;;5073373;28;20020;-45
2022/08/11 06:40:20;;;;;;;2.92;1.25;;;;;;;;;;5071941;28;20051;-44
2022/08/11 06:42:49;;;;;;;4.63;1.60;;;;;;;;;;5071890;28;20086;-44
2022/08/11 06:45:24;;;;;;;2.78;1.00;;;;;;;;;;5071961;28;20082;-44
2022/08/11 06:47:50;;;;;;;4.55;1.40;;;;;;;;;;5071739;28;20031;-44
2022/08/11 06:53:04;;;;;;;9.18;1.45;;;;;;;;;;5052898;28;20067;-44
2022/08/11 07:01:05;;;;;;;3.47;1.20;;;;;;;;;;5052885;28;20052;-44
2022/08/11 07:03:33;;;;;;;2.28;0.98;;;;;;;;;;5051290;28;20499;-45
2022/08/11 07:06:13;;;;;;;5.07;1.30;;;;;;;;;;5053284;28;20099;-45
2022/08/11 07:17:07;;;;;;;2.30;1.00;;;;;;;;;;5052763;28;20071;-44
2022/08/11 07:30:42;;;;;;;5.28;1.33;;;;;;;;;;5052063;28;20031;-45
2022/08/11 07:33:08;;;;;;;1.70;1.15;;;;;;;;;;5052702;28;20033;-44
2022/08/11 07:35:54;;;;;;;2.65;1.48;;;;;;;;;;5052652;28;20020;-44
2022/08/11 07:38:22;;;;;;;1.13;0.77;;;;;;;;;;5051671;28;20467;-44
2022/08/11 07:40:47;;;;;;;4.28;1.67;;;;;;;;;;5052230;28;20017;-44
2022/08/11 07:43:13;;;;;;;1.30;0.88;;;;;;;;;;5052133;28;20472;-44
2022/08/11 07:53:53;;;;;;;1.88;1.38;;;;;;;;;;5072260;28;20027;-44
2022/08/11 07:56:19;;;;;;;2.23;1.30;;;;;;;;;;5071751;28;20017;-44
2022/08/11 08:17:58;;;;;;;4.65;1.10;;;;;;;;;;5071806;28;20081;-44
2022/08/11 08:20:28;;;;;;;12.35;1.40;;;;;;;;;;5071442;28;20020;-45
2022/08/11 08:22:57;;;;;;;5.15;1.25;;;;;;;;;;5070329;28;20107;-44
2022/08/11 08:25:22;;;;;;;;;;;;;;;;;;5072104;28;20021;-44
2022/08/11 08:27:48;;;;;;;1.17;0.85;;;;;;;;;;5071995;28;19911;-45
2022/08/11 08:32:59;;;;;;;13.40;1.52;;;;;;;;;;5071447;28;20028;-45
2022/08/11 08:35:25;;;;;;;1.50;1.10;;;;;;;;;;5071233;28;20028;-44
2022/08/11 08:37:51;;;;;;;1.75;0.80;;;;;;;;;;5069345;28;20020;-45
2022/08/11 08:40:17;;;;;;;2.55;1.15;;;;;;;;;;5070903;28;20024;-45
2022/08/11 08:42:52;;;;;;;8.70;1.23;;;;;;;;;;5071231;28;20020;-44
2022/08/11 08:45:17;;;;;;;5.88;1.23;;;;;;;;;;5069397;28;20025;-44
2022/08/11 08:48:03;;;;;;;4.20;1.20;;;;;;;;;;5071901;28;20521;-46
2022/08/11 08:53:18;;;;;;;2.67;1.15;;;;;;;;;;5071511;28;20054;-44
2022/08/11 08:55:44;;;;;;;2.15;0.75;;;;;;;;;;5071370;28;20126;-44
2022/08/11 08:58:09;;;;;;;1.40;1.00;;;;;;;;;;5069937;28;20657;-45
2022/08/11 09:00:39;;;;;;;1.40;1.00;;;;;;;;;;5071279;28;20029;-46
2022/08/11 09:03:04;;;;;;;1.67;0.80;;;;;;;;;;5071210;28;20540;-44
2022/08/11 09:05:30;;;;;;;1.90;0.80;;;;;;;;;;5069606;28;20025;-43
2022/08/11 09:07:57;;;;;;;1.77;0.90;;;;;;;;;;5070783;28;20021;-44
2022/08/11 09:10:23;;;;;;;2.15;1.05;;;;;;;;;;5071271;28;20391;-44
2022/08/11 09:12:48;;;;;;;2.97;0.98;;;;;;;;;;5071406;28;20017;-45
2022/08/11 09:15:15;;;;;;;0.85;0.80;;;;;;;;;;5071085;28;20432;-46
2022/08/11 09:17:47;;;;;;;1.98;0.80;;;;;;;;;;5071210;28;20021;-44
2022/08/11 09:20:25;;;;;;;5.07;1.00;;;;;;;;;;5070979;28;20036;-44
2022/08/11 09:28:24;;;;;;;2.17;0.80;;;;;;;;;;5070610;28;20605;-44
2022/08/11 09:30:53;;;;;;;1.60;0.80;;;;;;;;;;5070951;28;20115;-45
2022/08/11 09:33:20;;;;;;;4.82;1.00;;;;;;;;;;5069336;28;20166;-44
2022/08/11 09:35:47;;;;;;;1.02;0.73;;;;;;;;;;5071000;28;20415;-43
2022/08/11 09:40:58;;;;;;;1.63;0.60;;;;;;;;;;5070776;28;20063;-44
2022/08/11 09:46:08;;;;;;;2.13;0.70;;;;;;;;;;5070424;28;20031;-44
2022/08/11 09:48:35;;;;;;;0.52;0.52;;;;;;;;;;5070565;28;20017;-46
2022/08/11 09:51:01;;;;;;;2.80;0.52;;;;;;;;;;5074588;28;20040;-44
2022/08/11 09:53:29;;;;;;;0.90;0.80;;;;;;;;;;5074332;28;20036;-44
2022/08/11 09:55:54;;;;;;;1.30;0.80;;;;;;;;;;5074282;28;20031;-45
2022/08/11 09:58:23;;;;;;;1.98;0.80;;;;;;;;;;5074434;28;20131;-44
2022/08/11 10:00:48;;;;;;;;;;;;;;;;;;5073353;28;20028;-45
2022/08/11 10:03:16;;;;;;;3.23;0.77;;;;;;;;;;5072291;28;19904;-45
2022/08/11 10:08:34;;;;;;;1.30;0.70;;;;;;;;;;5074027;28;20081;-44
2022/08/11 10:11:00;;;;;;;4.43;0.85;;;;;;;;;;5072743;28;20032;-45
2022/08/11 10:13:33;;;;;;;2.35;0.90;;;;;;;;;;5074116;28;20021;-44
2022/08/11 10:16:01;;;;;;;1.00;0.75;;;;;;;;;;5073765;28;20056;-45
2022/08/11 10:18:41;;;;;;;0.93;0.68;;;;;;;;;;5074242;28;20134;-45
2022/08/11 10:21:14;;;;;;;0.82;0.60;;;;;;;;;;5073844;28;20024;-44
2022/08/11 10:34:38;;;;;;;0.55;0.55;;;;;;;;;;5073294;28;20073;-44
2022/08/11 10:37:04;;;;;;;2.35;0.70;;;;;;;;;;5072164;28;20021;-44
2022/08/11 10:39:30;;;;;;;5.25;1.00;;;;;;;;;;5073059;28;20048;-45
2022/08/11 10:45:00;;;;;;;1.15;0.60;;;;;;;;;;5030653;28;20032;-45
2022/08/11 10:47:35;;;;;;;1.30;0.88;;;;;;;;;;5014353;28;20083;-44
2022/08/11 11:01:04;;;;;;;3.97;0.80;;;;;;;;;;5052406;28;20159;-44
2022/08/11 11:03:33;;;;;;;2.53;0.80;;;;;;;;;;5051176;28;20107;-44
2022/08/11 11:06:24;;;;;;;1.45;0.60;;;;;;;;;;5050924;28;20287;-46
2022/08/11 11:08:53;;;;;;;0.80;0.50;;;;;;;;;;5053014;28;20182;-44
2022/08/11 11:17:54;;;;;;;0.90;0.52;;;;;;;;;;5052715;28;20123;-44
2022/08/11 11:19:39;;;;;;;2.20;0.70;;;;;;;;;;5052538;28;20096;-44
2022/08/11 11:24:59;;;;;;;3.88;0.80;;;;;;;;;;5052760;28;20024;-47
2022/08/11 11:27:24;;;;;;;1.50;0.60;;;;;;;;;;5051006;28;20047;-44
2022/08/11 11:29:56;;;;;;;6.37;1.00;;;;;;;;;;5052253;28;20021;-45
2022/08/11 11:32:34;;;;;;;1.10;0.68;;;;;;;;;;5051044;28;20023;-45
2022/08/11 11:35:08;;;;;;;4.57;0.95;;;;;;;;;;5050686;28;20535;-45
2022/08/11 11:37:34;;;;;;;2.70;0.73;;;;;;;;;;5052083;28;20029;-44
2022/08/11 11:40:00;;;;;;;5.43;0.90;;;;;;;;;;5052414;28;20033;-45
2022/08/11 11:42:25;;;;;;;1.40;1.02;;;;;;;;;;5052037;28;20372;-44
2022/08/11 11:44:51;;;;;;;2.30;0.60;;;;;;;;;;5052007;28;20516;-44
2022/08/11 11:47:19;;;;;;;1.58;0.70;;;;;;;;;;5052171;28;20070;-44
2022/08/11 11:49:47;;;;;;;4.28;1.10;;;;;;;;;;5051775;28;20021;-46
2022/08/11 11:52:13;;;;;;;0.65;0.60;;;;;;;;;;5067559;28;20032;-44
2022/08/11 11:54:39;;;;;;;1.23;0.80;;;;;;;;;;5070639;28;20024;-44
2022/08/11 12:01:14;;;;;;;2.55;0.80;;;;;;;;;;5071477;28;20077;-45
2022/08/11 12:02:39;;;;;;;2.83;0.85;;;;;;;;;;5072160;28;20463;-44
2022/08/11 12:05:05;;;;;;;6.78;1.42;;;;;;;;;;5071189;28;20027;-44
2022/08/11 12:10:16;;;;;;;2.95;0.70;;;;;;;;;;5071494;28;20502;-44
2022/08/11 12:15:25;;;;;;;2.05;0.60;;;;;;;;;;5071091;28;20086;-44
2022/08/11 12:17:50;;;;;;;1.67;0.80;;;;;;;;;;5070970;28;20017;-46
2022/08/11 12:20:18;;;;;;;1.42;0.75;;;;;;;;;;5071545;28;20042;-44
2022/08/11 12:28:12;;;;;;;1.38;0.80;;;;;;;;;;5071670;28;20063;-44
2022/08/11 12:30:40;;;;;;;2.60;0.60;;;;;;;;;;5070174;28;20067;-43
2022/08/11 12:33:06;;;;;;;4.43;0.93;;;;;;;;;;5070437;28;20104;-45
2022/08/11 12:35:34;;;;;;;1.60;1.02;;;;;;;;;;5068545;28;20024;-45
2022/08/11 12:38:01;;;;;;;1.20;0.57;;;;;;;;;;5070758;28;20028;-46
2022/08/11 12:46:37;;;;;;;1.13;0.80;;;;;;;;;;5071442;28;20043;-46
2022/08/11 12:52:01;;;;;;;3.25;0.80;;;;;;;;;;5070667;28;20437;-44
2022/08/11 12:54:26;;;;;;;6.65;1.50;;;;;;;;;;5069313;28;20020;-44
2022/08/11 13:05:37;;;;;;;4.78;0.93;;;;;;;;;;5070876;28;20070;-44
2022/08/11 13:08:03;;;;;;;3.17;1.70;;;;;;;;;;5069237;28;20024;-44
2022/08/11 13:13:14;;;;;;;4.13;1.35;;;;;;;;;;5070682;28;20024;-45
2022/08/11 13:15:40;;;;;;;25.13;13.95;;;;;;;;;;5070536;28;20041;-44
2022/08/11 13:18:09;;;;;;;1.00;0.90;;;;;;;;;;5070530;28;20031;-44
2022/08/11 13:20:34;;;;;;;2.97;0.70;;;;;;;;;;5068541;28;20020;-44
2022/08/11 13:23:00;;;;;;;1.23;0.90;;;;;;;;;;5070333;28;20100;-44
2022/08/11 13:25:26;;;;;;;1.60;1.00;;;;;;;;;;5071975;28;20043;-44
2022/08/11 13:27:54;;;;;;;1.63;0.90;;;;;;;;;;5072211;28;20017;-45
2022/08/11 13:33:06;;;;;;;5.68;0.80;;;;;;;;;;5074367;28;20023;-44
2022/08/11 13:35:32;;;;;;;3.45;0.95;;;;;;;;;;5072615;28;20358;-44
2022/08/11 13:38:00;;;;;;;4.90;1.10;;;;;;;;;;5074719;28;20411;-44
2022/08/11 13:40:26;;;;;;;1.73;0.85;;;;;;;;;;5072599;28;20024;-45
2022/08/11 13:42:51;;;;;;;2.78;0.77;;;;;;;;;;5072499;28;20025;-44
2022/08/11 13:45:18;;;;;;;3.72;0.80;;;;;;;;;;5074151;28;20023;-44
2022/08/11 13:47:44;;;;;;;2.05;0.95;;;;;;;;;;5074293;28;20021;-44
2022/08/11 13:50:12;;;;;;;3.38;0.90;;;;;;;;;;5073698;28;20039;-46
2022/08/11 13:52:38;;;;;;;2.08;0.77;;;;;;;;;;5073107;28;20052;-44
2022/08/11 13:55:04;;;;;;;1.35;0.82;;;;;;;;;;5074166;28;20021;-44
2022/08/11 13:57:34;;;;;;;1.55;1.00;;;;;;;;;;5073691;28;20020;-45
2022/08/11 14:00:08;;;;;;;2.45;0.68;;;;;;;;;;5074447;28;20115;-46
2022/08/11 14:02:35;;;;;;;0.77;0.65;;;;;;;;;;5072460;28;20024;-45
2022/08/11 14:05:04;;;;;;;4.70;0.75;;;;;;;;;;5073548;28;20032;-45
2022/08/11 14:07:34;;;;;;;1.67;0.70;;;;;;;;;;5073630;28;20487;-44
2022/08/11 14:09:59;;;;;;;2.45;0.68;;;;;;;;;;5073075;28;20086;-44
2022/08/11 14:15:22;;;;;;;3.58;0.70;;;;;;;;;;5073093;28;20078;-44
2022/08/11 14:17:51;;;;;;;4.28;0.93;;;;;;;;;;5073475;28;20070;-46
2022/08/11 14:20:18;;;;;;;1.77;0.80;;;;;;;;;;5073643;28;20401;-45
2022/08/11 14:22:45;;;;;;;3.40;0.90;;;;;;;;;;5073704;28;20531;-44
2022/08/11 14:25:13;;;;;;;2.22;0.70;;;;;;;;;;5073603;28;20029;-45
2022/08/11 14:27:39;;;;;;;;;;;;;;;;;;5072823;28;20029;-44
2022/08/11 14:30:04;;;;;;;4.67;0.80;;;;;;;;;;5071540;28;20298;-44
2022/08/11 14:32:30;;;;;;;3.25;0.90;;;;;;;;;;5071562;28;20109;-45
2022/08/11 14:34:55;;;;;;;3.65;0.80;;;;;;;;;;5072815;28;20093;-45
2022/08/11 14:37:22;;;;;;;9.88;1.02;;;;;;;;;;5072661;28;20036;-44
2022/08/11 14:39:50;;;;;;;2.85;0.75;;;;;;;;;;5072806;28;20012;-46
2022/08/11 14:47:51;;;;;;;0.70;0.60;;;;;;;;;;5072812;28;20067;-45
2022/08/11 14:50:23;;;;;;;1.00;0.82;;;;;;;;;;5073208;28;20127;-44
2022/08/11 14:52:48;;;;;;;8.88;1.48;;;;;;;;;;5051911;28;20021;-45
2022/08/11 14:57:59;;;;;;;5.20;0.90;;;;;;;;;;5052294;28;20244;-46
2022/08/11 15:00:25;;;;;;;1.73;1.17;;;;;;;;;;5053016;28;20021;-44
2022/08/11 15:03:08;;;;;;;0.95;0.70;;;;;;;;;;5052580;28;20116;-45
2022/08/11 15:05:35;;;;;;;1.50;0.77;;;;;;;;;;5052889;28;20086;-44
2022/08/11 15:08:01;;;;;;;3.50;0.90;;;;;;;;;;5051222;28;20079;-45
2022/08/11 15:10:26;;;;;;;4.22;1.02;;;;;;;;;;5052499;28;20546;-44
2022/08/11 15:12:52;;;;;;;0.70;0.70;;;;;;;;;;5052205;28;20025;-45
2022/08/11 15:18:04;;;;;;;0.95;0.80;;;;;;;;;;5052737;28;20032;-44
2022/08/11 15:26:06;;;;;;;24.00;1.90;;;;;;;;;;5052237;28;20031;-45
2022/08/11 15:39:23;;;;;;;5.10;1.20;;;;;;;;;;5051991;28;20495;-44
2022/08/11 15:47:38;;;;;;;2.88;0.98;;;;;;;;;;5051683;28;20032;-45
2022/08/11 15:50:04;;;;;;;1.65;0.90;;;;;;;;;;5049904;28;20464;-47
2022/08/11 15:52:31;;;;;;;1.10;0.93;;;;;;;;;;5069620;28;20115;-45
2022/08/11 15:55:01;;;;;;;1.88;0.85;;;;;;;;;;5070085;28;20434;-45
2022/08/11 16:05:23;;;;;;;3.42;1.10;;;;;;;;;;5071452;28;20099;-45
2022/08/11 16:07:50;;;;;;;1.48;0.88;;;;;;;;;;5071291;28;20024;-46
2022/08/11 16:10:20;;;;;;;2.22;1.30;;;;;;;;;;5071166;28;20150;-47
2022/08/11 16:18:19;;;;;;;1.40;1.00;;;;;;;;;;5071449;28;20551;-45
2022/08/11 16:20:45;;;;;;;3.00;1.08;;;;;;;;;;5069909;28;20103;-45
2022/08/11 16:23:14;;;;;;;3.25;0.90;;;;;;;;;;5070503;28;20025;-46
2022/08/11 16:25:39;;;;;;;;;;;;;;;;;;5071646;28;20063;-45
2022/08/11 16:28:05;;;;;;;3.93;1.13;;;;;;;;;;5069832;28;19912;-45
2022/08/11 16:30:34;;;;;;;3.03;1.00;;;;;;;;;;5071208;28;20043;-45
2022/08/11 16:32:59;;;;;;;;;;;;;;;;;;5070186;28;20017;-46
2022/08/11 16:40:55;;;;;;;4.63;0.98;;;;;;;;;;5071611;28;20086;-44
2022/08/11 16:48:56;;;;;;;2.65;0.75;;;;;;;;;;5071230;28;20046;-45
2022/08/11 16:51:21;;;;;;;6.80;1.20;;;;;;;;;;5070846;28;20111;-46
2022/08/11 16:53:48;;;;;;;1.48;0.98;;;;;;;;;;5070746;28;20179;-47
2022/08/11 16:56:15;;;;;;;1.70;0.88;;;;;;;;;;5070692;28;20106;-45
2022/08/11 17:01:25;;;;;;;2.67;0.98;;;;;;;;;;5074980;28;20116;-46
2022/08/11 17:14:57;;;;;;;4.13;1.30;;;;;;;;;;5074524;28;20060;-45
2022/08/11 17:17:26;;;;;;;2.13;1.30;;;;;;;;;;5074276;28;20503;-45
2022/08/11 17:19:54;;;;;;;5.40;1.15;;;;;;;;;;5073114;28;20009;-45
2022/08/11 17:25:05;;;;;;;4.68;1.10;;;;;;;;;;5074630;28;20036;-44
2022/08/11 17:27:31;;;;;;;4.03;1.05;;;;;;;;;;5073297;28;20094;-45
2022/08/11 17:29:58;;;;;;;5.15;1.20;;;;;;;;;;5074346;28;20460;-45
2022/08/11 17:35:31;;;;;;;5.47;1.63;;;;;;;;;;5074369;28;20035;-44
2022/08/11 17:38:02;;;;;;;4.45;1.80;;;;;;;;;;5072623;28;20017;-45
2022/08/11 17:40:28;;;;;;;6.55;1.27;;;;;;;;;;5072591;28;20047;-45
2022/08/11 17:48:29;;;;;;;7.78;1.30;;;;;;;;;;5032431;28;20028;-45
2022/08/11 17:50:58;;;;;;;9.20;1.63;;;;;;;;;;5073780;28;20024;-45
2022/08/11 18:01:37;;;;;;;8.52;1.30;;;;;;;;;;5073984;28;20089;-45
2022/08/11 18:04:06;;;;;;;3.95;1.05;;;;;;;;;;5073242;28;20176;-45
2022/08/11 18:06:33;;;;;;;1.92;0.95;;;;;;;;;;5073774;28;20018;-46
